createdAt,value
2022-10-14T00:01:13.607Z,7.20
2022-10-14T00:03:41.113Z,7.22
2022-10-14T00:06:13.028Z,7.20
2022-10-14T00:08:40.579Z,7.14
2022-10-14T00:11:17.349Z,7.10
2022-10-14T00:13:44.754Z,7.10
2022-10-14T00:16:30.549Z,7.04
2022-10-14T00:18:58.755Z,7.00
2022-10-14T00:21:27.373Z,7.00
2022-10-14T00:23:54.216Z,7.00
2022-10-14T00:26:31.127Z,7.00
2022-10-14T00:28:59.017Z,7.00
2022-10-14T00:31:26.151Z,6.90
2022-10-14T00:33:52.631Z,6.90
2022-10-14T00:36:22.533Z,7.00
2022-10-14T00:38:49.233Z,6.90
2022-10-14T00:41:21.577Z,6.90
2022-10-14T00:43:54.742Z,6.80
2022-10-14T00:46:22.553Z,6.76
2022-10-14T00:48:49.301Z,6.70
2022-10-14T00:51:16.031Z,6.70
2022-10-14T00:53:44.234Z,6.70
2022-10-14T00:56:15.315Z,6.64
2022-10-14T00:58:43.404Z,6.60
2022-10-14T01:01:10.034Z,6.60
2022-10-14T01:03:36.565Z,6.60
2022-10-14T01:06:50.708Z,6.50
2022-10-14T01:09:36.098Z,6.40
2022-10-14T01:12:35.361Z,6.40
2022-10-14T01:15:34.730Z,6.40
2022-10-14T01:18:38.249Z,6.30
2022-10-14T01:21:11.673Z,6.24
2022-10-14T01:24:05.926Z,6.20
2022-10-14T01:27:16.092Z,6.10
2022-10-14T01:30:02.711Z,6.02
2022-10-14T01:33:06.052Z,6.00
2022-10-14T01:36:04.547Z,5.90
2022-10-14T01:38:52.787Z,5.80
2022-10-14T01:41:28.114Z,5.80
2022-10-14T01:44:00.247Z,5.70
2022-10-14T01:46:28.403Z,5.60
2022-10-14T01:49:03.146Z,5.60
2022-10-14T01:51:43.942Z,5.60
2022-10-14T01:54:18.039Z,5.60
2022-10-14T01:56:47.826Z,5.62
2022-10-14T01:59:18.521Z,5.70
2022-10-14T02:01:44.974Z,5.60
2022-10-14T02:04:21.521Z,5.60
2022-10-14T02:07:04.826Z,5.50
2022-10-14T02:09:53.343Z,5.42
2022-10-14T02:12:38.666Z,5.40
2022-10-14T02:15:30.986Z,5.46
2022-10-14T02:18:20.714Z,5.52
2022-10-14T02:21:08.863Z,5.62
2022-10-14T02:23:42.916Z,5.72
2022-10-14T02:26:10.212Z,5.80
2022-10-14T02:28:39.692Z,5.90
2022-10-14T02:31:13.376Z,5.90
2022-10-14T02:33:45.215Z,5.90
2022-10-14T02:36:15.801Z,5.90
2022-10-14T02:38:43.448Z,5.90
2022-10-14T02:41:15.746Z,5.80
2022-10-14T02:43:42.182Z,5.80
2022-10-14T02:46:08.689Z,5.84
2022-10-14T02:48:35.159Z,5.90
2022-10-14T02:51:01.593Z,5.90
2022-10-14T02:53:28.078Z,6.00
2022-10-14T02:55:54.471Z,6.02
2022-10-14T02:58:20.962Z,6.10
2022-10-14T03:00:49.847Z,6.10
2022-10-14T03:03:16.269Z,6.10
2022-10-14T03:05:43.161Z,6.10
2022-10-14T03:08:09.736Z,6.10
2022-10-14T03:10:36.114Z,6.04
2022-10-14T03:13:02.637Z,6.04
2022-10-14T03:15:29.171Z,6.08
2022-10-14T03:17:55.928Z,6.10
2022-10-14T03:20:22.365Z,6.10
2022-10-14T03:22:48.797Z,6.20
2022-10-14T03:25:15.905Z,6.20
2022-10-14T03:27:42.543Z,6.20
2022-10-14T03:30:09.339Z,6.18
2022-10-14T03:32:35.755Z,6.10
2022-10-14T03:35:02.138Z,6.10
2022-10-14T03:37:28.680Z,6.14
2022-10-14T03:39:55.107Z,6.20
2022-10-14T03:42:21.742Z,6.30
2022-10-14T03:44:48.304Z,6.38
2022-10-14T03:47:15.125Z,6.50
2022-10-14T03:49:41.585Z,6.60
2022-10-14T03:52:08.020Z,6.70
2022-10-14T03:54:34.434Z,6.78
2022-10-14T03:57:00.826Z,6.70
2022-10-14T03:59:27.325Z,6.70
2022-10-14T04:01:53.905Z,6.80
2022-10-14T04:04:20.492Z,6.80
2022-10-14T04:06:46.994Z,6.90
2022-10-14T04:09:13.528Z,6.90
2022-10-14T04:11:39.968Z,6.90
2022-10-14T04:14:06.370Z,6.90
2022-10-14T04:16:32.882Z,6.90
2022-10-14T04:18:59.508Z,6.94
2022-10-14T04:21:25.889Z,6.90
2022-10-14T04:23:52.318Z,7.00
2022-10-14T04:26:18.992Z,7.00
2022-10-14T04:28:45.613Z,7.10
2022-10-14T04:31:12.178Z,7.10
2022-10-14T04:33:38.622Z,7.10
2022-10-14T04:36:06.787Z,7.10
2022-10-14T04:38:34.019Z,7.00
2022-10-14T04:41:00.703Z,7.00
2022-10-14T04:43:27.143Z,6.90
2022-10-14T04:45:54.359Z,6.80
2022-10-14T04:48:20.980Z,6.80
2022-10-14T04:50:52.057Z,6.70
2022-10-14T04:53:22.094Z,6.68
2022-10-14T04:55:50.126Z,6.62
2022-10-14T04:58:16.990Z,6.60
2022-10-14T05:00:43.847Z,6.60
2022-10-14T05:03:10.277Z,6.60
2022-10-14T05:05:36.745Z,6.50
2022-10-14T05:08:03.448Z,6.46
2022-10-14T05:10:30.026Z,6.40
2022-10-14T05:12:56.740Z,6.30
2022-10-14T05:15:23.346Z,6.20
2022-10-14T05:17:49.757Z,6.10
2022-10-14T05:20:16.255Z,5.96
2022-10-14T05:22:45.678Z,5.90
2022-10-14T05:25:12.307Z,5.90
2022-10-14T05:27:39.041Z,5.86
2022-10-14T05:30:06.196Z,5.90
2022-10-14T05:32:32.754Z,5.90
2022-10-14T05:34:59.186Z,5.90
2022-10-14T05:37:25.701Z,5.90
2022-10-14T05:39:52.166Z,5.90
2022-10-14T05:42:18.875Z,6.00
2022-10-14T05:44:45.425Z,6.02
2022-10-14T05:47:11.987Z,6.10
2022-10-14T05:49:38.545Z,6.20
2022-10-14T05:52:05.344Z,6.30
2022-10-14T05:54:31.747Z,6.30
2022-10-14T05:56:58.321Z,6.30
2022-10-14T05:59:24.793Z,6.40
2022-10-14T06:01:51.310Z,6.50
2022-10-14T06:04:19.976Z,6.50
2022-10-14T06:06:46.604Z,6.50
2022-10-14T06:09:13.767Z,6.60
2022-10-14T06:11:40.721Z,6.70
2022-10-14T06:14:07.725Z,6.70
2022-10-14T06:16:34.578Z,6.80
2022-10-14T06:19:01.466Z,6.92
2022-10-14T06:21:27.951Z,7.10
2022-10-14T06:23:54.559Z,7.20
2022-10-14T06:26:21.089Z,7.30
2022-10-14T06:28:47.789Z,7.30
2022-10-14T06:31:14.412Z,7.40
2022-10-14T06:33:41.359Z,7.40
2022-10-14T06:36:09.465Z,7.50
2022-10-14T06:38:35.877Z,7.60
2022-10-14T06:41:02.382Z,7.76
2022-10-14T06:43:28.779Z,7.88
2022-10-14T06:45:58.446Z,8.00
2022-10-14T06:48:24.924Z,8.10
2022-10-14T06:50:52.283Z,8.26
2022-10-14T06:53:18.982Z,8.40
2022-10-14T06:55:45.411Z,8.50
2022-10-14T06:58:12.691Z,8.66
2022-10-14T07:00:40.653Z,8.80
2022-10-14T07:03:08.649Z,9.00
2022-10-14T07:05:36.014Z,9.10
2022-10-14T07:08:02.478Z,9.28
2022-10-14T07:10:28.875Z,9.40
2022-10-14T07:12:56.253Z,9.50
2022-10-14T07:15:23.139Z,9.60
2022-10-14T07:17:49.648Z,9.70
2022-10-14T07:20:16.221Z,9.80
2022-10-14T07:22:42.777Z,9.88
2022-10-14T07:25:09.970Z,9.94
2022-10-14T07:27:36.610Z,10.00
2022-10-14T07:30:05.605Z,10.10
2022-10-14T07:32:34.489Z,10.20
2022-10-14T07:35:00.892Z,10.28
2022-10-14T07:37:27.303Z,10.32
2022-10-14T07:39:53.704Z,10.40
2022-10-14T07:44:54.009Z,10.70
2022-10-14T07:47:21.643Z,10.80
2022-10-14T07:49:48.397Z,10.98
2022-10-14T07:52:15.810Z,11.10
2022-10-14T07:54:42.305Z,11.20
2022-10-14T07:57:08.742Z,11.30
2022-10-14T07:59:35.145Z,11.40
2022-10-14T08:02:01.772Z,11.50
2022-10-14T08:04:28.206Z,11.60
2022-10-14T08:06:54.620Z,11.70
2022-10-14T08:09:21.608Z,11.72
2022-10-14T08:11:48.709Z,11.80
2022-10-14T08:14:15.784Z,11.90
2022-10-14T08:16:42.228Z,11.90
2022-10-14T08:19:14.533Z,12.00
2022-10-14T08:21:43.757Z,12.18
2022-10-14T08:24:11.035Z,12.30
2022-10-14T08:26:51.149Z,12.40
2022-10-14T08:29:17.862Z,12.52
2022-10-14T08:31:44.435Z,12.68
2022-10-14T08:34:11.614Z,12.80
2022-10-14T08:36:38.126Z,12.86
2022-10-14T08:39:05.584Z,12.80
2022-10-14T08:41:56.414Z,12.80
2022-10-14T08:44:51.087Z,13.00
2022-10-14T08:47:26.650Z,13.10
2022-10-14T08:50:18.727Z,13.30
2022-10-14T08:53:10.600Z,13.44
2022-10-14T08:55:53.037Z,13.60
2022-10-14T08:58:41.290Z,13.70
2022-10-14T09:01:28.964Z,13.80
2022-10-14T09:04:04.151Z,13.90
2022-10-14T09:06:38.697Z,13.90
2022-10-14T09:09:15.617Z,13.90
2022-10-14T09:11:46.805Z,13.94
2022-10-14T09:14:21.160Z,14.00
2022-10-14T09:16:54.344Z,14.10
2022-10-14T09:19:34.706Z,14.10
2022-10-14T09:22:02.372Z,14.20
2022-10-14T09:24:37.573Z,14.20
2022-10-14T09:27:15.371Z,14.20
2022-10-14T09:29:47.670Z,14.30
2022-10-14T09:32:39.453Z,14.30
2022-10-14T09:35:34.512Z,14.32
2022-10-14T09:38:01.465Z,14.40
2022-10-14T09:40:34.038Z,14.40
2022-10-14T09:43:10.420Z,14.44
2022-10-14T09:45:57.946Z,14.50
2022-10-14T09:48:38.678Z,14.56
2022-10-14T09:51:21.353Z,14.60
2022-10-14T09:53:53.134Z,14.74
2022-10-14T09:56:39.034Z,14.80
2022-10-14T09:59:20.144Z,14.90
2022-10-14T10:02:18.904Z,15.00
2022-10-14T10:04:47.501Z,15.10
2022-10-14T10:07:30.537Z,15.14
2022-10-14T10:10:05.035Z,15.20
2022-10-14T10:12:35.536Z,15.30
2022-10-14T10:15:06.249Z,15.40
2022-10-14T10:17:40.900Z,15.50
2022-10-14T10:20:31.959Z,15.60
2022-10-14T10:23:26.894Z,15.70
2022-10-14T10:25:53.326Z,15.88
2022-10-14T10:28:32.422Z,15.96
2022-10-14T10:31:14.147Z,16.00
2022-10-14T10:34:18.279Z,16.10
2022-10-14T10:37:05.048Z,16.30
2022-10-14T10:39:58.612Z,16.50
2022-10-14T10:42:51.461Z,16.70
2022-10-14T10:45:36.601Z,16.80
2022-10-14T10:48:24.475Z,16.90
2022-10-14T10:50:55.950Z,16.90
2022-10-14T10:54:12.397Z,16.90
2022-10-14T10:56:48.855Z,17.02
2022-10-14T10:59:40.073Z,17.12
2022-10-14T11:02:12.374Z,17.30
2022-10-14T11:04:54.324Z,17.30
2022-10-14T11:08:05.872Z,17.50
2022-10-14T11:11:09.372Z,17.70
2022-10-14T11:14:10.117Z,17.92
2022-10-14T11:16:54.244Z,18.10
2022-10-14T11:19:48.580Z,18.20
2022-10-14T11:22:39.097Z,18.30
2022-10-14T11:25:46.261Z,18.50
2022-10-14T11:28:57.393Z,18.70
2022-10-14T11:31:51.293Z,18.92
2022-10-14T11:34:42.913Z,18.98
2022-10-14T11:37:21.654Z,19.00
2022-10-14T11:40:18.366Z,18.92
2022-10-14T11:43:13.521Z,18.98
2022-10-14T11:45:55.040Z,19.00
2022-10-14T11:48:47.949Z,18.90
2022-10-14T11:51:51.005Z,18.84
2022-10-14T11:54:30.701Z,18.92
2022-10-14T11:57:04.524Z,19.00
2022-10-14T12:00:00.538Z,19.10
2022-10-14T12:02:54.204Z,19.00
2022-10-14T12:05:47.665Z,19.10
2022-10-14T12:08:29.393Z,19.10
2022-10-14T12:11:09.287Z,19.00
2022-10-14T12:13:52.210Z,18.90
2022-10-14T12:16:22.848Z,18.80
2022-10-14T12:18:55.377Z,18.80
2022-10-14T12:21:46.861Z,18.80
2022-10-14T12:24:24.226Z,18.78
2022-10-14T12:26:57.738Z,18.70
2022-10-14T12:29:52.224Z,18.70
2022-10-14T12:32:30.747Z,18.70
2022-10-14T12:35:01.683Z,18.70
2022-10-14T12:37:35.187Z,18.80
2022-10-14T12:40:02.082Z,18.90
2022-10-14T12:42:31.175Z,18.94
2022-10-14T12:45:01.722Z,18.90
2022-10-14T12:47:36.032Z,18.98
2022-10-14T12:50:15.519Z,19.00
2022-10-14T12:52:48.161Z,19.06
2022-10-14T12:55:19.988Z,18.90
2022-10-14T12:57:56.237Z,18.80
2022-10-14T13:00:22.648Z,18.80
2022-10-14T13:02:53.633Z,18.90
2022-10-14T13:05:43.049Z,18.92
2022-10-14T13:08:15.552Z,18.90
2022-10-14T13:11:11.274Z,18.70
2022-10-14T13:13:52.141Z,18.50
2022-10-14T13:16:21.322Z,18.30
2022-10-14T13:18:52.526Z,18.10
2022-10-14T13:21:34.325Z,18.00
2022-10-14T13:24:27.358Z,17.90
2022-10-14T13:26:53.857Z,17.90
2022-10-14T13:29:20.197Z,17.82
2022-10-14T13:31:59.996Z,17.88
2022-10-14T13:35:02.330Z,17.90
2022-10-14T13:37:46.183Z,17.90
2022-10-14T13:40:53.021Z,18.00
2022-10-14T13:43:28.679Z,18.00
2022-10-14T13:46:05.646Z,18.00
2022-10-14T13:48:37.225Z,17.90
2022-10-14T13:51:31.702Z,17.90
2022-10-14T13:54:11.573Z,17.80
2022-10-14T13:56:38.026Z,17.80
2022-10-14T13:59:43.487Z,17.62
2022-10-14T14:02:24.426Z,17.56
2022-10-14T14:04:55.774Z,17.50
2022-10-14T14:08:21.818Z,17.40
2022-10-14T14:10:22.478Z,17.40
2022-10-14T14:12:50.366Z,17.30
2022-10-14T14:15:29.240Z,17.26
2022-10-14T14:17:55.709Z,17.24
2022-10-14T14:20:28.310Z,17.20
2022-10-14T14:22:58.910Z,17.20
2022-10-14T14:25:35.006Z,17.20
2022-10-14T14:28:05.999Z,17.30
2022-10-14T14:30:39.144Z,17.30
2022-10-14T14:33:16.632Z,17.40
2022-10-14T14:35:55.451Z,17.40
2022-10-14T14:38:31.093Z,17.46
2022-10-14T14:41:14.772Z,17.40
2022-10-14T14:43:47.364Z,17.40
2022-10-14T14:46:40.838Z,17.40
2022-10-14T14:49:15.238Z,17.40
2022-10-14T14:51:42.977Z,17.40
2022-10-14T14:54:19.784Z,17.30
2022-10-14T14:57:02.116Z,17.30
2022-10-14T14:59:44.163Z,17.30
2022-10-14T15:02:19.984Z,17.30
2022-10-14T15:04:50.128Z,17.20
2022-10-14T15:07:23.946Z,17.20
2022-10-14T15:09:58.458Z,17.20
2022-10-14T15:12:30.760Z,17.20
2022-10-14T15:15:00.437Z,17.20
2022-10-14T15:17:37.739Z,17.10
2022-10-14T15:20:04.284Z,17.00
2022-10-14T15:22:40.198Z,16.98
2022-10-14T15:25:25.420Z,16.88
2022-10-14T15:27:57.914Z,16.70
2022-10-14T15:30:39.621Z,16.60
2022-10-14T15:33:23.328Z,16.50
2022-10-14T15:36:03.539Z,16.40
2022-10-14T15:41:05.431Z,16.10
2022-10-14T15:43:33.750Z,16.00
2022-10-14T15:46:19.295Z,15.80
2022-10-14T15:48:57.455Z,15.60
2022-10-14T15:51:30.549Z,15.40
2022-10-14T15:53:58.025Z,15.28
2022-10-14T15:56:24.458Z,15.10
2022-10-14T15:58:50.943Z,15.00
2022-10-14T16:01:21.175Z,14.84
2022-10-14T16:03:50.030Z,14.70
2022-10-14T16:06:17.092Z,14.60
2022-10-14T16:08:43.589Z,14.50
2022-10-14T16:11:24.234Z,14.40
2022-10-14T16:13:50.757Z,14.30
2022-10-14T16:16:26.855Z,14.20
2022-10-14T16:18:54.155Z,14.10
2022-10-14T16:21:20.568Z,14.00
2022-10-14T16:23:47.183Z,13.90
2022-10-14T16:26:14.379Z,13.78
2022-10-14T16:28:40.949Z,13.52
2022-10-14T16:31:14.161Z,13.42
2022-10-14T16:33:44.726Z,13.40
2022-10-14T16:36:15.521Z,13.30
2022-10-14T16:38:42.119Z,13.20
2022-10-14T16:41:11.739Z,13.10
2022-10-14T16:43:38.631Z,13.02
2022-10-14T16:46:07.526Z,12.98
2022-10-14T16:48:36.005Z,12.90
2022-10-14T16:51:03.201Z,12.80
2022-10-14T16:53:48.840Z,12.78
2022-10-14T16:56:38.691Z,12.60
2022-10-14T16:59:07.563Z,12.50
2022-10-14T17:01:34.889Z,12.38
2022-10-14T17:04:01.443Z,12.30
2022-10-14T17:06:28.139Z,12.14
2022-10-14T17:08:54.743Z,12.00
2022-10-14T17:11:21.287Z,11.90
2022-10-14T17:13:52.355Z,11.80
2022-10-14T17:16:18.968Z,11.80
2022-10-14T17:18:46.678Z,11.80
2022-10-14T17:21:13.579Z,11.80
2022-10-14T17:23:42.773Z,11.76
2022-10-14T17:26:16.072Z,11.70
2022-10-14T17:28:43.055Z,11.68
2022-10-14T17:31:19.334Z,11.60
2022-10-14T17:33:46.228Z,11.40
2022-10-14T17:36:27.793Z,11.28
2022-10-14T17:38:57.161Z,11.20
2022-10-14T17:41:27.186Z,11.10
2022-10-14T17:43:56.871Z,10.90
2022-10-14T17:46:27.049Z,10.80
2022-10-14T17:48:57.170Z,10.70
2022-10-14T17:51:28.203Z,10.70
2022-10-14T17:54:01.463Z,10.68
2022-10-14T17:56:30.526Z,10.60
2022-10-14T17:59:00.893Z,10.60
2022-10-14T18:01:37.899Z,10.60
2022-10-14T18:04:16.392Z,10.50
2022-10-14T18:06:45.369Z,10.40
2022-10-14T18:09:12.669Z,10.40
2022-10-14T18:12:07.794Z,10.40
2022-10-14T18:14:29.760Z,10.30
2022-10-14T18:16:56.134Z,10.26
2022-10-14T18:19:22.608Z,10.20
2022-10-14T18:21:49.011Z,10.10
2022-10-14T18:24:15.442Z,10.00
2022-10-14T18:26:41.985Z,10.00
2022-10-14T18:29:09.298Z,9.98
2022-10-14T18:31:36.699Z,9.90
2022-10-14T18:34:03.532Z,9.90
2022-10-14T18:36:33.092Z,9.90
2022-10-14T18:39:04.547Z,9.90
2022-10-14T18:41:31.147Z,9.90
2022-10-14T18:43:58.476Z,9.80
2022-10-14T18:46:37.017Z,9.80
2022-10-14T18:49:06.919Z,9.70
2022-10-14T18:51:37.122Z,9.62
2022-10-14T18:54:12.950Z,9.52
2022-10-14T18:56:39.492Z,9.50
2022-10-14T18:59:11.004Z,9.30
2022-10-14T19:01:39.322Z,9.20
2022-10-14T19:04:08.612Z,9.10
2022-10-14T19:06:35.813Z,9.00
2022-10-14T19:09:03.789Z,9.00
2022-10-14T19:11:32.821Z,9.00
2022-10-14T19:14:05.191Z,8.90
2022-10-14T19:16:36.056Z,8.90
2022-10-14T19:19:11.992Z,8.90
2022-10-14T19:21:39.220Z,8.90
2022-10-14T19:24:08.037Z,8.90
2022-10-14T19:26:38.289Z,8.90
2022-10-14T19:29:10.456Z,8.80
2022-10-14T19:31:39.561Z,8.80
2022-10-14T19:34:10.178Z,8.70
2022-10-14T19:36:39.173Z,8.70
2022-10-14T19:39:08.907Z,8.60
2022-10-14T19:41:43.146Z,8.60
2022-10-14T19:44:11.757Z,8.50
2022-10-14T19:46:39.112Z,8.50
2022-10-14T19:49:06.218Z,8.48
2022-10-14T19:51:34.957Z,8.40
2022-10-14T19:54:02.033Z,8.40
2022-10-14T19:56:29.062Z,8.30
2022-10-14T19:58:58.367Z,8.28
2022-10-14T20:01:28.564Z,8.20
2022-10-14T20:03:56.031Z,8.18
2022-10-14T20:06:23.675Z,8.10
2022-10-14T20:08:51.282Z,8.10
2022-10-14T20:11:21.257Z,8.00
2022-10-14T20:13:48.543Z,7.90
2022-10-14T20:16:15.140Z,7.90
2022-10-14T20:18:42.182Z,7.90
2022-10-14T20:21:12.541Z,7.80
2022-10-14T20:23:39.705Z,7.68
2022-10-14T20:26:11.085Z,7.66
2022-10-14T20:28:38.849Z,7.70
2022-10-14T20:31:10.900Z,7.70
2022-10-14T20:33:37.547Z,7.70
2022-10-14T20:36:08.433Z,7.70
2022-10-14T20:38:38.517Z,7.60
2022-10-14T20:41:14.998Z,7.60
2022-10-14T20:43:43.114Z,7.56
2022-10-14T20:46:10.287Z,7.50
2022-10-14T20:48:39.883Z,7.40
2022-10-14T20:51:13.158Z,7.30
2022-10-14T20:56:13.089Z,7.30
2022-10-14T20:58:40.801Z,7.28
2022-10-14T21:01:16.691Z,7.30
2022-10-14T21:03:46.014Z,7.30
2022-10-14T21:06:17.515Z,7.30
2022-10-14T21:08:44.707Z,7.30
2022-10-14T21:11:15.794Z,7.30
2022-10-14T21:13:48.622Z,7.30
2022-10-14T21:16:29.872Z,7.20
2022-10-14T21:19:06.998Z,7.28
2022-10-14T21:21:39.989Z,7.24
2022-10-14T21:24:08.783Z,7.16
2022-10-14T21:26:35.216Z,7.10
2022-10-14T21:29:02.756Z,7.10
2022-10-14T21:31:30.346Z,7.10
2022-10-14T21:34:04.412Z,7.10
2022-10-14T21:36:33.443Z,7.10
2022-10-14T21:39:01.463Z,7.00
2022-10-14T21:41:28.311Z,7.10
2022-10-14T21:43:59.212Z,7.00
2022-10-14T21:46:26.743Z,7.00
2022-10-14T21:48:57.124Z,7.00
2022-10-14T21:51:25.962Z,7.00
2022-10-14T21:53:52.625Z,7.06
2022-10-14T21:56:19.921Z,7.06
2022-10-14T21:58:46.435Z,7.02
2022-10-14T22:01:18.479Z,7.00
2022-10-14T22:03:45.080Z,7.00
2022-10-14T22:06:16.741Z,7.00
2022-10-14T22:08:48.571Z,6.94
2022-10-14T22:11:31.043Z,6.90
2022-10-14T22:14:00.355Z,6.90
2022-10-14T22:16:29.160Z,6.88
2022-10-14T22:18:59.834Z,6.80
2022-10-14T22:21:29.571Z,6.80
2022-10-14T22:23:56.105Z,6.70
2022-10-14T22:26:24.707Z,6.70
2022-10-14T22:29:02.252Z,6.70
2022-10-14T22:31:32.700Z,6.70
2022-10-14T22:34:00.804Z,6.68
2022-10-14T22:36:29.662Z,6.62
2022-10-14T22:38:58.600Z,6.60
2022-10-14T22:41:28.805Z,6.60
2022-10-14T22:43:59.219Z,6.56
2022-10-14T22:46:29.754Z,6.50
2022-10-14T22:48:58.378Z,6.48
2022-10-14T22:51:29.315Z,6.40
2022-10-14T22:53:56.037Z,6.40
2022-10-14T22:56:25.801Z,6.40
2022-10-14T22:58:57.474Z,6.50
2022-10-14T23:01:27.566Z,6.60
2022-10-14T23:03:56.263Z,6.60
2022-10-14T23:06:23.025Z,6.68
2022-10-14T23:08:49.640Z,6.60
2022-10-14T23:11:19.740Z,6.60
2022-10-14T23:13:46.237Z,6.60
2022-10-14T23:16:18.067Z,6.60
2022-10-14T23:18:45.905Z,6.60
2022-10-14T23:21:31.415Z,6.50
2022-10-14T23:24:01.939Z,6.50
2022-10-14T23:26:33.135Z,6.50
2022-10-14T23:29:03.915Z,6.48
2022-10-14T23:31:33.578Z,6.50
2022-10-14T23:34:05.016Z,6.50
2022-10-14T23:36:31.599Z,6.54
2022-10-14T23:38:59.128Z,6.60
2022-10-14T23:41:26.097Z,6.60
2022-10-14T23:43:52.940Z,6.60
2022-10-14T23:46:20.520Z,6.70
2022-10-14T23:48:55.477Z,6.80
2022-10-14T23:51:33.625Z,6.80
2022-10-14T23:54:00.021Z,6.80
2022-10-14T23:56:26.430Z,6.80
2022-10-14T23:58:52.858Z,6.70
